Nellis Air Force Base Las Vegas US
ICAO: KLSV
IATA: LSV
Category: Medium
Scheduled Services: No

Elevation: 1870 ft
TransAlt. 18000 ft.

Airport Communications:
ALCE AMC:25.735
APP:118.125
ATIS:27.01
CLNC DEL:120.9
DEP:135.1
GND:121.8
SOF:30.56
PMSV METRO:32.39
ACC COMD POST:32
PTD:139.3
TWR:132.55

KLSV Zoom In..

Runways:

(A) RW 03L length 10120 ft width 200 ft
---- / hdg 27

(B) RW 03R length 10051 ft width 150 ft
---- / hdg 27

(C) RW 21L length 10051 ft width 150 ft
ILS 109.10 / hdg 207

(D) RW 21R length 10120 ft width 200 ft
---- / hdg 207

Location; KLSV
Day. 20 / Time. 19.58 Zulu
* Altimeter: 29.93
* Temperature: 36° c. 96.8°f.
* Wind from: 000° Speed 00 kn.
Dewpoint: 16° c.
Visibility: 10 Statute Miles.
Clouds: Clear (automated report).

KLSV 201958Z AUTO 00000KT 10SM CLR 36/16 A2993 RMK AO2 SLP109 T03580155


Wind - Calm.

 
 
jpsmedia.com for Web Design worldairports.se 2018   terms of use